Time;durP1;ratioP1;P1;durP2;ratioP2;P2;SDS_P1;SDS_P2;PMS_P1;PMS_P2;Temp;Humidity;BMP_temperature;BMP_pressure;BME280_temperature;BME280_humidity;BME280_pressure;Samples;Min_cycle;Max_cycle;Signal;HPM_P1;HPM_P2
2021/01/08 00:01:15;;;;;;;11.15;10.18;;;;;;;0.65;64.50;99577.09;10415903;28;20444;-67
2021/01/08 00:06:18;;;;;;;10.35;9.45;;;;;;;0.75;64.17;99571.06;10417267;28;20041;-67
2021/01/08 00:11:19;;;;;;;9.25;8.43;;;;;;;0.75;63.92;99558.13;10415772;28;20453;-68
2021/01/08 00:16:21;;;;;;;8.85;8.07;;;;;;;0.79;63.71;99558.13;10416835;28;20451;-67
2021/01/08 00:21:22;;;;;;;9.82;8.93;;;;;;;0.69;64.31;99555.53;10414046;28;20056;-68
2021/01/08 00:26:23;;;;;;;8.98;8.18;;;;;;;0.75;63.59;99555.56;10416021;28;20068;-67
2021/01/08 00:31:24;;;;;;;9.77;8.73;;;;;;;0.83;63.42;99555.53;10415804;28;20045;-67
2021/01/08 00:36:26;;;;;;;9.50;8.60;;;;;;;0.87;63.40;99544.31;10416790;28;20483;-67
2021/01/08 00:41:36;;;;;;;9.43;8.63;;;;;;;0.83;63.92;99542.59;10423879;28;20452;-68
2021/01/08 00:46:50;;;;;;;8.82;8.07;;;;;;;0.79;64.24;99545.19;10422827;28;20041;-67
2021/01/08 00:51:52;;;;;;;9.40;8.60;;;;;;;0.74;64.79;99542.59;10422770;28;20051;-67
2021/01/08 00:56:55;;;;;;;9.10;8.30;;;;;;;0.75;64.67;99541.72;10420464;28;20116;-69
2021/01/08 01:02:07;;;;;;;8.98;8.18;;;;;;;0.93;63.94;99540.84;10419886;28;20053;-66
2021/01/08 01:07:08;;;;;;;8.82;8.02;;;;;;;0.73;65.01;99541.75;10421399;28;20048;-67
2021/01/08 01:12:09;;;;;;;8.45;7.75;;;;;;;0.84;64.13;99536.56;10420968;28;20159;-67
2021/01/08 01:17:11;;;;;;;8.75;8.05;;;;;;;0.76;64.46;99551.25;10420565;28;20068;-68
2021/01/08 01:22:12;;;;;;;8.68;7.88;;;;;;;0.83;64.22;99546.91;10420316;28;20042;-68
2021/01/08 01:27:13;;;;;;;8.10;7.30;;;;;;;0.87;63.51;99552.09;10420783;28;20035;-67
2021/01/08 01:32:15;;;;;;;8.35;7.60;;;;;;;0.78;63.92;99549.50;10421650;28;20372;-67
2021/01/08 01:37:16;;;;;;;8.13;7.32;;;;;;;0.82;63.98;99538.28;10419612;28;20422;-67
2021/01/08 01:42:17;;;;;;;8.18;7.45;;;;;;;0.86;63.94;99545.19;10421321;28;20091;-67
2021/01/08 01:47:19;;;;;;;8.48;7.68;;;;;;;0.86;63.80;99537.44;10419604;28;20111;-67
2021/01/08 01:52:20;;;;;;;8.82;8.02;;;;;;;0.79;64.02;99545.19;10419815;28;20084;-67
2021/01/08 01:57:21;;;;;;;9.27;8.45;;;;;;;0.77;64.25;99540.03;10420711;28;20068;-67
2021/01/08 02:02:36;;;;;;;8.30;7.50;;;;;;;0.80;63.73;99540.03;10420596;28;20095;-67
2021/01/08 02:07:45;;;;;;;8.55;7.75;;;;;;;0.83;63.85;99545.19;10419521;28;20072;-67
2021/01/08 02:12:48;;;;;;;8.35;7.63;;;;;;;0.87;63.92;99536.56;10417940;28;20045;-67
2021/01/08 02:17:49;;;;;;;8.05;7.28;;;;;;;0.89;63.70;99534.84;10418181;28;20091;-67
2021/01/08 02:23:03;;;;;;;8.90;8.18;;;;;;;0.94;63.25;99535.69;10418399;28;20136;-68
2021/01/08 02:28:04;;;;;;;8.10;7.40;;;;;;;0.96;63.50;99539.13;10416225;28;20045;-68
2021/01/08 02:33:06;;;;;;;8.40;7.63;;;;;;;0.91;63.80;99535.69;10417495;28;20080;-67
2021/01/08 02:38:08;;;;;;;8.45;7.65;;;;;;;0.84;64.01;99531.41;10431672;22;20103;-68
2021/01/08 02:43:12;;;;;;;8.10;7.40;;;;;;;0.79;64.67;99527.94;10420363;28;20041;-68
2021/01/08 02:48:13;;;;;;;8.05;7.35;;;;;;;0.89;63.69;99524.50;10419852;28;20072;-68
2021/01/08 02:53:18;;;;;;;8.18;7.47;;;;;;;0.83;64.40;99524.47;10419410;28;20041;-66
2021/01/08 02:58:20;;;;;;;8.60;7.80;;;;;;;0.90;64.18;99523.63;10420062;28;20046;-68
2021/01/08 03:03:26;;;;;;;8.38;7.68;;;;;;;0.90;64.60;99525.34;10417753;28;20049;-68
2021/01/08 03:08:29;;;;;;;9.77;8.98;;;;;;;0.92;64.53;99521.03;10419993;28;20073;-68
2021/01/08 03:13:34;;;;;;;8.95;8.15;;;;;;;0.90;64.73;99522.75;10420056;28;20099;-69
2021/01/08 03:18:36;;;;;;;9.73;8.82;;;;;;;0.81;65.32;99523.63;10423782;28;20042;-68
2021/01/08 03:23:38;;;;;;;10.23;9.32;;;;;;;0.78;65.99;99526.22;10406564;28;20498;-69
2021/01/08 03:28:39;;;;;;;9.30;8.40;;;;;;;0.69;66.79;99516.72;10423458;28;20034;-69
2021/01/08 03:33:41;;;;;;;10.98;10.07;;;;;;;0.77;66.71;99511.56;10422305;28;20045;-68
2021/01/08 03:38:43;;;;;;;10.27;9.27;;;;;;;0.77;66.90;99508.97;10423980;28;20045;-68
2021/01/08 03:43:44;;;;;;;10.07;9.18;;;;;;;0.75;67.04;99511.56;10419910;28;20095;-68
2021/01/08 03:48:45;;;;;;;10.02;9.13;;;;;;;0.70;67.19;99507.25;10420378;28;20049;-68
2021/01/08 03:53:47;;;;;;;11.57;10.57;;;;;;;0.72;67.23;99508.13;10421769;28;20391;-68
2021/01/08 03:58:48;;;;;;;10.30;9.40;;;;;;;0.84;66.68;99495.19;10418426;28;20099;-67
2021/01/08 04:03:49;;;;;;;10.23;9.32;;;;;;;0.87;66.72;99502.06;10420976;28;20120;-67
2021/01/08 04:08:50;;;;;;;9.75;8.85;;;;;;;0.83;66.68;99496.03;10418228;28;20045;-67
2021/01/08 04:13:52;;;;;;;9.25;8.45;;;;;;;0.98;65.85;99492.56;10424972;28;20049;-68
2021/01/08 04:18:53;;;;;;;9.43;8.52;;;;;;;0.91;65.96;99493.44;10426801;28;20037;-68
2021/01/08 04:23:54;;;;;;;9.45;8.65;;;;;;;0.82;66.29;99496.91;10430724;28;20061;-69
2021/01/08 04:28:57;;;;;;;9.80;8.90;;;;;;;0.89;66.06;99488.28;10431701;28;20172;-69
2021/01/08 04:33:59;;;;;;;8.75;8.05;;;;;;;0.99;65.78;99499.47;10432934;28;20041;-68
2021/01/08 04:39:01;;;;;;;9.68;8.77;;;;;;;0.89;66.30;99496.03;10431268;28;20128;-69
2021/01/08 04:44:05;;;;;;;10.38;9.48;;;;;;;1.05;65.97;99494.25;10429077;28;20102;-69
2021/01/08 04:49:07;;;;;;;11.13;10.20;;;;;;;0.93;66.64;99496.88;10425734;28;20100;-70
2021/01/08 04:54:09;;;;;;;9.35;8.55;;;;;;;0.97;66.78;99490.81;10426732;28;20495;-68
2021/01/08 04:59:14;;;;;;;9.93;9.02;;;;;;;1.04;66.75;99494.28;10424107;28;20117;-67
2021/01/08 05:04:15;;;;;;;10.50;9.60;;;;;;;0.98;66.96;99496.03;10422662;28;20046;-66
2021/01/08 05:09:16;;;;;;;9.77;8.98;;;;;;;1.12;66.59;99495.13;10422259;28;20064;-68
2021/01/08 05:14:18;;;;;;;11.93;10.90;;;;;;;0.94;67.45;99489.13;10422268;28;20046;-68
2021/01/08 05:19:23;;;;;;;10.30;9.40;;;;;;;0.94;67.91;99496.88;10419844;28;20041;-67
2021/01/08 05:24:24;;;;;;;10.23;9.35;;;;;;;0.84;68.68;99496.88;10421519;28;20049;-67
2021/01/08 05:29:27;;;;;;;10.88;10.07;;;;;;;0.87;68.62;99502.06;10420871;28;20052;-66
2021/01/08 05:34:29;;;;;;;11.00;10.10;;;;;;;0.79;69.49;99504.66;10418864;28;20557;-67
2021/01/08 05:39:30;;;;;;;12.77;11.65;;;;;;;0.79;69.86;99498.63;10419542;28;20037;-67
2021/01/08 05:44:31;;;;;;;11.93;10.85;;;;;;;0.77;70.66;99506.38;10419692;28;20049;-67
2021/01/08 05:49:35;;;;;;;17.02;11.65;;;;;;;0.60;71.07;99508.13;10419549;28;20045;-68
2021/01/08 05:54:36;;;;;;;13.52;12.40;;;;;;;0.61;70.94;99508.09;10419596;28;20045;-66
2021/01/08 05:59:39;;;;;;;13.88;12.77;;;;;;;0.52;71.72;99504.66;10419036;28;20041;-66
2021/01/08 06:04:40;;;;;;;13.13;12.05;;;;;;;0.71;70.64;99502.09;10418076;28;20103;-67
2021/01/08 06:09:44;;;;;;;13.02;11.93;;;;;;;0.71;71.26;99507.25;10418708;28;20037;-68
2021/01/08 06:14:46;;;;;;;13.40;12.25;;;;;;;0.74;70.69;99509.81;10417991;28;20080;-67
2021/01/08 06:19:47;;;;;;;15.15;13.25;;;;;;;0.82;70.98;99507.25;10419236;28;20392;-68
2021/01/08 06:24:54;;;;;;;13.38;12.27;;;;;;;0.70;71.13;99508.09;10416288;28;20047;-67
2021/01/08 06:30:02;;;;;;;13.88;12.57;;;;;;;0.77;71.36;99513.28;10415080;28;20076;-68
2021/01/08 06:35:08;;;;;;;14.25;13.15;;;;;;;0.67;71.68;99508.13;10416771;28;20041;-67
2021/01/08 06:40:12;;;;;;;13.93;12.82;;;;;;;0.66;71.70;99514.13;10417501;28;20041;-68
2021/01/08 06:45:17;;;;;;;13.82;12.65;;;;;;;0.77;71.46;99524.50;10419168;28;20049;-66
2021/01/08 06:50:20;;;;;;;15.07;13.77;;;;;;;0.79;71.26;99524.47;10416500;28;20569;-67
2021/01/08 06:55:22;;;;;;;14.45;13.07;;;;;;;0.71;71.29;99529.69;10419452;28;20467;-67
2021/01/08 07:00:28;;;;;;;13.93;12.63;;;;;;;0.84;70.92;99531.41;10419172;28;20041;-66
2021/01/08 07:05:30;;;;;;;13.45;12.25;;;;;;;0.73;71.19;99540.88;10418650;28;20104;-66
2021/01/08 07:10:33;;;;;;;14.45;13.15;;;;;;;0.80;70.99;99552.97;10417596;28;20041;-65
2021/01/08 07:15:35;;;;;;;12.88;11.88;;;;;;;0.98;70.16;99558.13;10416657;28;20044;-68
2021/01/08 07:20:37;;;;;;;12.98;11.98;;;;;;;0.78;70.97;99556.41;10417008;28;20038;-68
2021/01/08 07:25:54;;;;;;;13.10;11.98;;;;;;;0.94;70.63;99561.56;10417732;28;20415;-67
2021/01/08 07:31:09;;;;;;;12.23;11.32;;;;;;;0.99;70.49;99564.16;10417155;28;20033;-66
2021/01/08 07:36:23;;;;;;;12.75;11.65;;;;;;;1.01;70.70;99568.47;10416979;28;20053;-66
2021/01/08 07:41:32;;;;;;;14.02;12.82;;;;;;;1.01;70.90;99573.63;10416967;28;20050;-66
2021/01/08 07:46:34;;;;;;;13.35;12.25;;;;;;;1.09;70.79;99575.38;10417848;28;20037;-67
2021/01/08 07:51:47;;;;;;;12.98;11.98;;;;;;;1.27;70.25;99575.34;10425604;28;20483;-66
2021/01/08 07:57:05;;;;;;;12.13;11.18;;;;;;;1.25;70.18;99579.66;10425705;28;20095;-65
2021/01/08 08:02:06;;;;;;;11.90;10.90;;;;;;;1.39;69.92;99588.28;10424913;28;20041;-66
2021/01/08 08:07:11;;;;;;;12.25;11.20;;;;;;;1.49;69.44;99597.75;10424212;28;20045;-66
2021/01/08 08:12:12;;;;;;;11.35;10.45;;;;;;;1.46;69.54;99602.94;10424555;28;20080;-66
2021/01/08 08:22:55;;;;;;;11.65;10.60;;;;;;;1.56;69.38;99608.97;10555070;23;20118;-80
2021/01/08 08:27:58;;;;;;;12.05;11.13;;;;;;;1.55;69.54;99617.59;10239608;29;20039;-80
2021/01/08 08:33:00;;;;;;;12.85;11.75;;;;;;;1.47;69.69;99604.66;10252697;23;20049;-79
2021/01/08 08:38:02;;;;;;;10.45;9.65;;;;;;;1.68;68.98;99618.41;10198906;29;20067;-79
2021/01/08 08:43:03;;;;;;;11.60;10.70;;;;;;;1.74;69.08;99618.41;10198642;29;20044;-81
2021/01/08 08:48:06;;;;;;;12.07;11.18;;;;;;;1.74;69.40;99626.19;10193600;29;20095;-80
2021/01/08 08:53:12;;;;;;;10.23;9.45;;;;;;;1.99;68.36;99622.66;10193714;29;20072;-80
2021/01/08 08:58:14;;;;;;;10.63;9.73;;;;;;;1.82;69.21;99623.59;10196268;29;20048;-80
2021/01/08 09:03:22;;;;;;;11.60;10.70;;;;;;;1.71;69.61;99616.69;10201242;29;20080;-80
2021/01/08 09:08:44;;;;;;;12.10;11.20;;;;;;;1.78;70.09;99625.31;10197269;29;20059;-81
2021/01/08 09:13:53;;;;;;;11.73;10.82;;;;;;;1.75;70.41;99618.41;10192721;29;20573;-81
2021/01/08 09:19:05;;;;;;;11.77;10.88;;;;;;;1.74;70.91;99631.38;10192975;29;20051;-80
2021/01/08 09:24:13;;;;;;;11.90;11.10;;;;;;;1.76;70.46;99632.22;10193362;29;20159;-81
2021/01/08 09:29:28;;;;;;;11.77;10.88;;;;;;;1.77;70.51;99640.00;10208979;29;20071;-81
2021/01/08 09:34:33;;;;;;;12.38;11.27;;;;;;;1.69;71.16;99636.56;10197472;29;20108;-81
2021/01/08 09:39:47;;;;;;;10.48;9.68;;;;;;;1.80;70.73;99633.94;10190458;29;20052;-81
2021/01/08 09:44:49;;;;;;;11.05;10.20;;;;;;;1.72;71.31;99641.72;10192556;29;20063;-82
2021/01/08 09:49:51;;;;;;;10.25;9.40;;;;;;;1.92;69.83;99641.69;10191335;29;20075;-81
2021/01/08 09:54:52;;;;;;;11.05;10.25;;;;;;;1.77;70.71;99644.31;10191804;29;20048;-81
2021/01/08 09:59:58;;;;;;;11.20;10.40;;;;;;;1.84;70.84;99646.03;10191220;29;20051;-80
2021/01/08 10:05:00;;;;;;;11.50;10.60;;;;;;;1.81;71.20;99637.38;10192322;29;20095;-82
2021/01/08 10:10:01;;;;;;;10.80;9.90;;;;;;;1.89;70.67;99644.28;10190261;29;20048;-81
2021/01/08 10:15:06;;;;;;;11.15;10.35;;;;;;;1.84;71.07;99642.56;10188419;29;20080;-82
2021/01/08 10:20:07;;;;;;;10.82;9.93;;;;;;;2.00;70.98;99639.94;10173060;29;20094;-80
2021/01/08 10:25:22;;;;;;;10.40;9.60;;;;;;;1.98;70.61;99646.84;10190290;29;20048;-81
2021/01/08 10:30:41;;;;;;;12.68;11.18;;;;;;;1.91;71.42;99644.28;10186299;29;20513;-79
2021/01/08 10:35:46;;;;;;;11.35;10.55;;;;;;;2.02;70.95;99645.09;10189167;29;20111;-80
2021/01/08 10:40:48;;;;;;;10.35;9.45;;;;;;;2.03;70.81;99641.63;10188390;29;20096;-81
2021/01/08 10:45:50;;;;;;;11.27;10.38;;;;;;;2.12;70.77;99639.00;10187582;29;20080;-80
2021/01/08 10:50:52;;;;;;;10.77;9.98;;;;;;;2.22;70.25;99639.84;10182392;29;20048;-80
2021/01/08 10:55:53;;;;;;;11.02;10.13;;;;;;;2.11;70.56;99632.09;10195299;29;20058;-81
2021/01/08 11:00:54;;;;;;;10.80;10.00;;;;;;;2.14;70.77;99633.84;10188787;29;20120;-80
2021/01/08 11:05:56;;;;;;;10.98;10.18;;;;;;;2.26;70.57;99634.66;10189405;29;20072;-80
2021/01/08 11:10:57;;;;;;;9.48;8.77;;;;;;;2.34;69.34;99633.72;10191108;29;20407;-82
2021/01/08 11:15:58;;;;;;;10.30;9.38;;;;;;;2.37;69.61;99637.19;10189254;29;20407;-81
2021/01/08 11:21:00;;;;;;;8.88;8.27;;;;;;;2.40;68.69;99631.97;10189411;29;20054;-80
2021/01/08 11:26:01;;;;;;;9.52;8.82;;;;;;;2.01;70.61;99633.88;10188341;29;20071;-82
2021/01/08 11:31:03;;;;;;;8.88;8.23;;;;;;;2.16;69.72;99638.13;10189299;29;20134;-82
2021/01/08 11:36:05;;;;;;;9.98;9.18;;;;;;;2.15;69.61;99640.75;10191709;29;20435;-81
2021/01/08 11:41:06;;;;;;;9.48;8.73;;;;;;;2.30;69.26;99632.88;10202295;29;20124;-79
2021/01/08 11:46:07;;;;;;;10.65;9.75;;;;;;;2.29;69.33;99638.94;10207208;29;20059;-78
2021/01/08 11:51:14;;;;;;;7.85;7.22;;;;;;;2.57;68.18;99625.81;10192865;29;20111;-82
2021/01/08 11:56:16;;;;;;;7.72;7.13;;;;;;;2.66;68.12;99633.56;10204149;29;20111;-81
2021/01/08 12:01:17;;;;;;;9.30;8.50;;;;;;;2.61;68.23;99632.72;10203118;29;20458;-82
2021/01/08 12:06:26;;;;;;;8.93;8.23;;;;;;;2.49;68.82;99631.94;10206336;29;20052;-83
2021/01/08 12:11:32;;;;;;;7.80;7.20;;;;;;;2.46;67.88;99639.72;10197783;29;20052;-82
2021/01/08 12:16:41;;;;;;;9.57;8.82;;;;;;;2.38;68.45;99638.03;10194414;29;20475;-82
2021/01/08 12:21:46;;;;;;;8.85;8.25;;;;;;;2.25;69.47;99642.41;10217044;29;20048;-81
2021/01/08 12:26:55;;;;;;;8.27;7.70;;;;;;;2.45;68.72;99648.38;10205239;29;20071;-82
2021/01/08 12:32:06;;;;;;;8.65;7.95;;;;;;;2.28;69.17;99653.63;10211986;29;20044;-83
2021/01/08 12:37:11;;;;;;;7.88;7.38;;;;;;;2.38;67.72;99643.22;10201097;29;20040;-81
2021/01/08 12:42:18;;;;;;;8.68;7.90;;;;;;;2.26;68.29;99651.94;10217996;29;20085;-82
2021/01/08 12:47:32;;;;;;;7.47;6.88;;;;;;;2.09;68.65;99651.16;10205728;29;20052;-83
2021/01/08 12:52:58;;;;;;;7.60;7.03;;;;;;;2.27;67.39;99657.13;10222161;29;20028;-83
2021/01/08 12:58:15;;;;;;;9.63;8.82;;;;;;;2.24;68.92;99656.25;10207355;29;20052;-83
2021/01/08 13:03:21;;;;;;;11.35;10.35;;;;;;;2.13;68.42;99658.03;10227048;29;20048;-81
2021/01/08 13:08:45;;;;;;;8.65;8.05;;;;;;;2.11;68.53;99654.56;10228914;29;20048;-81
2021/01/08 13:13:57;;;;;;;8.30;7.70;;;;;;;1.98;69.22;99654.63;10215780;29;20099;-81
2021/01/08 13:18:58;;;;;;;7.22;6.63;;;;;;;2.27;67.84;99661.44;10216155;29;20056;-82
2021/01/08 13:24:08;;;;;;;;;;;;;;;2.21;67.86;99658.84;10215211;23;20406;-66
2021/01/08 13:29:11;;;;;;;8.32;7.72;;;;;;;2.27;67.51;99661.44;10188282;29;20311;-67
2021/01/08 13:34:14;;;;;;;7.63;7.03;;;;;;;2.10;68.30;99669.28;10187355;29;20059;-65
2021/01/08 13:39:15;;;;;;;9.40;7.10;;;;;;;2.21;67.65;99671.81;10188600;29;20509;-65
2021/01/08 13:44:17;;;;;;;7.50;7.00;;;;;;;2.26;67.23;99676.13;10190232;29;20523;-66
2021/01/08 13:49:19;;;;;;;10.05;9.20;;;;;;;2.09;68.72;99674.47;10190613;29;20055;-66
2021/01/08 13:54:21;;;;;;;8.38;7.63;;;;;;;2.05;67.82;99688.31;10192412;29;20463;-66
2021/01/08 13:59:22;;;;;;;7.47;6.88;;;;;;;2.09;67.41;99687.44;10191663;29;20475;-67
2021/01/08 14:04:24;;;;;;;7.45;6.75;;;;;;;2.12;67.55;99693.47;10188334;29;20127;-66
2021/01/08 14:09:26;;;;;;;8.98;6.30;;;;;;;1.97;67.52;99696.97;10186156;29;20044;-66
2021/01/08 14:14:28;;;;;;;7.15;6.65;;;;;;;2.05;67.32;99698.69;10187677;29;20052;-66
2021/01/08 14:19:30;;;;;;;7.65;7.15;;;;;;;1.92;67.22;99698.72;10185811;29;20170;-67
2021/01/08 14:24:32;;;;;;;7.15;6.65;;;;;;;1.85;67.99;99702.16;10186572;29;20139;-66
2021/01/08 14:29:34;;;;;;;7.22;6.72;;;;;;;1.90;67.75;99700.41;10185696;29;20115;-66
2021/01/08 14:34:35;;;;;;;6.90;6.40;;;;;;;1.96;67.03;99707.34;10184211;29;20052;-67
2021/01/08 14:39:37;;;;;;;6.53;6.03;;;;;;;1.90;67.39;99705.59;10177979;29;20072;-65
2021/01/08 14:44:39;;;;;;;7.60;7.03;;;;;;;1.81;67.60;99712.53;10176672;29;20048;-65
2021/01/08 14:49:40;;;;;;;7.40;6.90;;;;;;;1.82;68.03;99715.16;10176370;29;20050;-66
2021/01/08 14:54:41;;;;;;;7.68;7.07;;;;;;;1.84;67.60;99713.41;10177278;29;20471;-66
2021/01/08 14:59:43;;;;;;;6.57;6.07;;;;;;;1.92;67.17;99719.44;10177520;29;20495;-66
2021/01/08 15:04:44;;;;;;;7.10;6.57;;;;;;;1.92;67.21;99719.44;10177501;29;20052;-66
2021/01/08 15:09:46;;;;;;;8.20;7.60;;;;;;;1.83;67.76;99726.38;10180562;29;20115;-66
2021/01/08 15:14:48;;;;;;;8.93;8.13;;;;;;;1.80;67.60;99732.41;10178754;29;20055;-67
2021/01/08 15:19:49;;;;;;;7.97;7.38;;;;;;;1.92;66.90;99734.13;10180353;29;20108;-66
2021/01/08 15:24:53;;;;;;;7.60;6.97;;;;;;;1.90;67.43;99741.91;10176762;29;20055;-67
2021/01/08 15:29:55;;;;;;;7.97;7.28;;;;;;;1.84;67.81;99744.50;10175792;29;20391;-65
2021/01/08 15:34:57;;;;;;;7.82;7.22;;;;;;;1.78;67.59;99744.53;10176651;29;20471;-66
2021/01/08 15:39:58;;;;;;;7.85;7.25;;;;;;;1.73;67.38;99756.63;10178113;29;20071;-67
2021/01/08 15:45:00;;;;;;;7.90;7.20;;;;;;;1.69;68.01;99762.66;10176036;29;20064;-65
2021/01/08 15:50:01;;;;;;;8.68;7.97;;;;;;;1.74;67.47;99772.16;10176865;29;20045;-66
2021/01/08 15:55:04;;;;;;;8.13;7.60;;;;;;;1.58;68.46;99779.94;10177577;29;20058;-67
2021/01/08 16:00:07;;;;;;;8.90;8.20;;;;;;;1.75;67.73;99784.25;10177719;29;20417;-67
2021/01/08 16:05:10;;;;;;;7.72;7.03;;;;;;;1.71;67.84;99777.34;10177802;29;20056;-67
2021/01/08 16:10:12;;;;;;;9.02;8.32;;;;;;;1.65;68.35;99781.66;10181470;29;20553;-66
2021/01/08 16:15:13;;;;;;;8.75;8.05;;;;;;;1.73;68.01;99787.72;10184155;29;20169;-67
2021/01/08 16:20:15;;;;;;;8.93;8.30;;;;;;;1.76;68.19;99792.88;10183454;29;20040;-67
2021/01/08 16:25:17;;;;;;;9.35;8.65;;;;;;;1.48;68.89;99792.88;10183772;29;20490;-67
2021/01/08 16:30:20;;;;;;;8.95;8.25;;;;;;;1.74;67.94;99802.41;10183807;29;20095;-67
2021/01/08 16:35:25;;;;;;;8.93;8.23;;;;;;;1.68;68.29;99803.28;10184000;29;20569;-67
2021/01/08 16:40:28;;;;;;;10.10;9.40;;;;;;;1.64;68.70;99805.81;10183493;29;20869;-67
2021/01/08 16:45:30;;;;;;;9.73;8.77;;;;;;;1.66;68.54;99806.72;10183820;29;20066;-67
2021/01/08 16:50:32;;;;;;;9.25;8.55;;;;;;;1.76;68.32;99813.63;10182418;29;20463;-66
2021/01/08 16:55:34;;;;;;;10.30;9.50;;;;;;;1.63;68.70;99811.88;10184090;29;20047;-67
2021/01/08 17:00:35;;;;;;;8.88;8.20;;;;;;;1.86;68.07;99809.28;10182339;29;20044;-65
2021/01/08 17:05:37;;;;;;;9.63;8.93;;;;;;;1.58;68.87;99817.06;10180178;29;20074;-66
2021/01/08 17:10:51;;;;;;;10.50;9.75;;;;;;;1.47;69.44;99827.41;10181558;29;20047;-65
2021/01/08 17:15:52;;;;;;;10.50;9.70;;;;;;;1.74;68.79;99829.16;10182227;29;20537;-66
2021/01/08 17:20:54;;;;;;;10.35;9.55;;;;;;;1.62;69.04;99828.28;10180382;29;20092;-65
2021/01/08 17:26:00;;;;;;;10.07;9.27;;;;;;;1.77;68.33;99826.59;10181321;29;20127;-66
2021/01/08 17:31:02;;;;;;;10.50;9.73;;;;;;;1.79;68.24;99830.91;10183589;29;20500;-65
2021/01/08 17:36:04;;;;;;;12.25;11.25;;;;;;;1.61;68.68;99844.72;10181921;29;20040;-67
2021/01/08 17:41:11;;;;;;;11.40;10.50;;;;;;;1.49;69.58;99848.13;10180907;29;20076;-66
2021/01/08 17:46:13;;;;;;;14.00;12.93;;;;;;;1.21;70.56;99853.25;10181012;29;20056;-67
2021/01/08 17:51:14;;;;;;;12.90;11.90;;;;;;;1.08;71.61;99864.41;10180639;29;20335;-67
2021/01/08 17:56:22;;;;;;;13.45;12.35;;;;;;;0.96;72.38;99870.41;10180746;29;20059;-65
2021/01/08 18:01:23;;;;;;;13.88;12.68;;;;;;;1.04;72.74;99875.63;10179167;29;20040;-66
2021/01/08 18:06:25;;;;;;;13.07;12.07;;;;;;;1.13;72.72;99877.38;10178478;29;20103;-66
2021/01/08 18:11:26;;;;;;;17.10;15.60;;;;;;;1.19;72.75;99874.81;10181010;29;20518;-66
2021/01/08 18:16:28;;;;;;;17.52;15.73;;;;;;;1.18;72.96;99878.25;10184883;29;20044;-67
2021/01/08 18:21:36;;;;;;;13.98;12.82;;;;;;;1.30;72.70;99880.91;10191412;29;20064;-67
2021/01/08 18:26:39;;;;;;;11.60;10.60;;;;;;;1.16;72.89;99878.25;10187420;29;20040;-67
2021/01/08 18:31:41;;;;;;;12.48;11.38;;;;;;;0.99;73.51;99891.13;10187250;29;20099;-67
2021/01/08 18:36:44;;;;;;;11.57;10.68;;;;;;;0.87;73.54;99887.63;10188436;29;20517;-67
2021/01/08 18:41:46;;;;;;;12.82;11.63;;;;;;;0.92;74.31;99894.53;10177854;29;20056;-66
2021/01/08 18:46:48;;;;;;;11.68;10.63;;;;;;;0.93;73.85;99896.28;10177392;29;20072;-65
2021/01/08 18:51:49;;;;;;;11.85;10.95;;;;;;;0.83;74.14;99907.44;10176611;29;20505;-64
2021/01/08 18:56:50;;;;;;;12.25;11.23;;;;;;;0.95;74.22;99907.50;10175548;29;20044;-65
2021/01/08 19:01:52;;;;;;;14.20;12.95;;;;;;;0.89;73.97;99906.63;10175509;29;20513;-64
2021/01/08 19:06:53;;;;;;;13.65;12.55;;;;;;;0.75;74.65;99912.59;10176407;29;20055;-64
2021/01/08 19:11:54;;;;;;;13.95;12.85;;;;;;;0.93;74.45;99916.09;10176520;29;20040;-64
2021/01/08 19:16:57;;;;;;;14.02;12.77;;;;;;;0.63;75.03;99924.56;10173477;29;20099;-65
2021/01/08 19:22:00;;;;;;;13.20;12.10;;;;;;;0.93;74.62;99927.34;10175030;29;20048;-65
2021/01/08 19:27:16;;;;;;;13.35;12.25;;;;;;;0.70;75.16;99934.09;10174595;29;20101;-66
2021/01/08 19:32:17;;;;;;;14.45;13.10;;;;;;;0.51;75.28;99940.84;10174784;29;20052;-65
2021/01/08 19:37:22;;;;;;;12.88;11.88;;;;;;;0.56;75.70;99941.75;10175632;29;20054;-65
2021/01/08 19:42:26;;;;;;;14.68;13.40;;;;;;;0.59;75.39;99946.09;10162529;29;20051;-65
2021/01/08 19:47:27;;;;;;;15.52;14.25;;;;;;;0.46;75.66;99947.72;10180365;29;20063;-65
2021/01/08 19:52:32;;;;;;;17.30;15.60;;;;;;;0.30;76.49;99951.88;10179812;29;20083;-65
2021/01/08 19:57:33;;;;;;;15.02;13.80;;;;;;;0.41;76.19;99957.16;10177585;29;20048;-65
2021/01/08 20:02:34;;;;;;;18.50;16.90;;;;;;;0.51;75.89;99961.53;10181197;29;20055;-65
2021/01/08 20:07:36;;;;;;;16.50;15.15;;;;;;;0.53;75.87;99971.91;10181124;29;20046;-67
2021/01/08 20:12:43;;;;;;;16.83;15.30;;;;;;;0.55;75.72;99976.25;10181744;29;20140;-68
2021/01/08 20:17:46;;;;;;;15.13;13.95;;;;;;;0.67;75.66;99978.06;10185040;29;20067;-66
2021/01/08 20:22:48;;;;;;;16.83;15.32;;;;;;;0.62;75.65;99980.63;10183889;29;20064;-66
2021/01/08 20:27:49;;;;;;;17.77;16.27;;;;;;;0.49;76.14;99995.16;10184654;29;20506;-66
2021/01/08 20:32:51;;;;;;;16.23;14.93;;;;;;;0.58;75.71;99998.69;10185033;29;20099;-67
2021/01/08 20:37:52;;;;;;;15.73;14.43;;;;;;;0.66;75.23;100004.75;10194539;23;20040;-68
2021/01/08 20:43:03;;;;;;;16.85;15.55;;;;;;;0.35;76.11;99998.47;10146707;29;20080;-69
2021/01/08 20:48:05;;;;;;;16.95;15.27;;;;;;;0.22;76.53;100008.72;10147407;29;20041;-70
2021/01/08 20:53:07;;;;;;;15.93;14.70;;;;;;;0.24;76.16;100004.41;10146399;29;20061;-68
2021/01/08 20:58:08;;;;;;;16.08;14.75;;;;;;;0.45;75.33;100011.50;10144823;29;20119;-68
2021/01/08 21:03:11;;;;;;;16.40;15.00;;;;;;;0.32;75.74;100006.22;10145731;29;20100;-68
2021/01/08 21:08:12;;;;;;;16.55;15.20;;;;;;;0.24;76.11;100026.81;10144682;29;20044;-69
2021/01/08 21:13:14;;;;;;;15.18;13.88;;;;;;;0.37;75.70;100031.25;10145546;29;20424;-68
2021/01/08 21:18:16;;;;;;;15.48;14.18;;;;;;;0.40;75.91;100035.56;10145231;29;20116;-68
2021/01/08 21:23:18;;;;;;;23.98;16.42;;;;;;;0.24;76.30;100037.16;10141613;29;20059;-68
2021/01/08 21:28:19;;;;;;;16.35;14.95;;;;;;;0.23;76.25;100035.44;10140497;29;20139;-67
2021/01/08 21:33:25;;;;;;;15.55;14.23;;;;;;;0.21;76.46;100037.97;10140901;29;20521;-68
2021/01/08 21:38:26;;;;;;;19.60;16.00;;;;;;;0.23;76.31;100043.19;10139666;29;20044;-67
2021/01/08 21:43:27;;;;;;;18.70;16.88;;;;;;;0.17;76.42;100046.56;10145781;29;20384;-67
2021/01/08 21:48:29;;;;;;;16.75;15.35;;;;;;;0.16;76.27;100049.13;10148646;29;20048;-68
2021/01/08 21:53:30;;;;;;;16.33;14.95;;;;;;;0.19;76.21;100060.38;10143030;29;20055;-69
2021/01/08 21:58:33;;;;;;;16.25;14.85;;;;;;;0.18;76.31;100063.81;10141604;29;20092;-68
2021/01/08 22:03:34;;;;;;;17.70;16.10;;;;;;;0.34;76.04;100064.84;10141206;29;20411;-68
2021/01/08 22:08:36;;;;;;;18.05;16.33;;;;;;;0.10;76.65;100065.47;10139189;29;20045;-68
2021/01/08 22:13:37;;;;;;;17.08;15.55;;;;;;;0.26;76.41;100066.47;10140148;29;20084;-66
2021/01/08 22:18:38;;;;;;;17.00;15.57;;;;;;;0.37;76.01;100070.03;10139356;29;20123;-67
2021/01/08 22:23:40;;;;;;;16.85;15.25;;;;;;;0.42;75.57;100080.44;10139118;29;20499;-67
2021/01/08 22:28:41;;;;;;;16.15;14.85;;;;;;;0.49;75.35;100080.50;10139546;29;20068;-68
2021/01/08 22:33:44;;;;;;;16.30;14.90;;;;;;;0.39;75.85;100077.81;10139481;29;20053;-68
2021/01/08 22:38:46;;;;;;;16.55;14.95;;;;;;;0.15;76.07;100083.59;10138633;29;20455;-67
2021/01/08 22:43:48;;;;;;;16.23;14.93;;;;;;;0.31;75.73;100084.59;10137847;29;20044;-67
2021/01/08 22:48:50;;;;;;;14.27;13.10;;;;;;;0.37;75.21;100088.16;10139463;29;20554;-68
2021/01/08 22:53:52;;;;;;;14.55;13.35;;;;;;;0.57;74.78;100087.47;10137811;29;20078;-67
2021/01/08 22:58:55;;;;;;;13.73;12.63;;;;;;;0.78;73.90;100087.66;10138592;29;20127;-68
2021/01/08 23:03:58;;;;;;;14.82;13.43;;;;;;;0.62;73.80;100086.69;10138324;29;20091;-67
2021/01/08 23:08:59;;;;;;;18.52;14.50;;;;;;;0.50;74.20;100094.31;10139844;29;20424;-68
2021/01/08 23:14:00;;;;;;;15.27;14.00;;;;;;;0.55;74.28;100092.63;10139075;29;20502;-68
2021/01/08 23:19:03;;;;;;;15.77;14.23;;;;;;;0.41;74.32;100102.84;10136690;29;20048;-67
2021/01/08 23:24:05;;;;;;;14.82;13.55;;;;;;;0.23;74.54;100098.34;10137439;29;20044;-68
2021/01/08 23:29:09;;;;;;;15.75;14.43;;;;;;;0.18;74.94;100106.91;10137707;29;20045;-67
2021/01/08 23:34:11;;;;;;;15.07;13.77;;;;;;;0.34;74.86;100108.78;10138273;29;20053;-69